Jump to content

  •  

SOUTHWEST AIRLINES FLIGHT WN1371 FLOWN ON 12-06-2017 BY CAPTAIN TYLER HANUS

Pilot StatsCaptain Tyler Hanus (LDP525) • 262.7 total hours • 63 total flights [View Logbook]
FLIGHT DETAILS
StatusReceived and approved on 2017-12-06 at 15:12:56
Origin AirportSacramento Intl (KSMF) • Sacramento, California, United States (28 feet MSL)
Filed Flight PlanFLIGHT PLANNER OFFLINE
Destination AirportSan Diego Intl (KSAN) • San Diego, California, United States (15 feet MSL)
Alternate AirportNone Filed
AirlineSouthwest Airlines
AircraftBoeing 737-700 (73G / B737-700)
FS Aircraft UsedBoeing 737-7H4NG Southwest Airlines N708SW Goldstar Textures
Cruising AltitudeFL410
Distance Flown417 nautical miles
Passengers Onboard57 passengers (41.91% full)
DEPARTURE DETAILS
Time Out11:24:22
Taxi Data114,717 lbs total with 13,051 lbs of fuel onboard
Takeoff Data11:34:02 (10 minutes after leaving gate/ramp) • 114,320 lbs total • 5° pitch at 133 knots
Departure METARKSMF 061753Z 00000KT 10SM CLR 08/05 A3035 RMK AO2 SLP277 T00830050 10083 21006 51013
ARRIVAL DETAILS
Landing Data12:45:49 • 107,584 lbs total • 4° pitch doing 109 knots at a rate of -193.77 feet/minute with 5,810 lbs of fuel onboard
Time In12:48:43 (3 minutes after landing)
Ramp Weight107,476 lbs total
Total Fuel Used7,241 lbs
Total Block Time01:24:31 (1.4 hours) while 13 minutes were spent on the ground
Arrival METARKSAN 062051Z 32009KT 10SM FEW012 21/03 A3011 RMK AO2 SLP195 FU FEW012 T02110028 58025
MISCELLANEOUS DETAILS
LiveDISPATCH Version4.8.3.1
FS Version
FSUIPC Version4.97
OS VersionWindows 7 32-bit
Screen Resolution1360 x 768
Pilot's CommentsNo Comments Reported
FLIGHT MAP